sensor_id;sensor_type;location;lat;lon;timestamp;temperature;humidity
69776;DHT22;57049;51.450;-2.516;2023-04-24T00:01:32;5.80;96.77
69776;DHT22;57049;51.450;-2.516;2023-04-24T00:03:59;5.81;96.64
69776;DHT22;57049;51.450;-2.516;2023-04-24T00:06:25;5.87;96.54
69776;DHT22;57049;51.450;-2.516;2023-04-24T00:09:00;5.89;96.54
69776;DHT22;57049;51.450;-2.516;2023-04-24T00:11:26;5.87;96.47
69776;DHT22;57049;51.450;-2.516;2023-04-24T00:13:52;5.96;96.45
69776;DHT22;57049;51.450;-2.516;2023-04-24T00:16:17;5.96;96.37
69776;DHT22;57049;51.450;-2.516;2023-04-24T00:18:43;5.93;96.33
69776;DHT22;57049;51.450;-2.516;2023-04-24T00:21:10;5.97;96.20
69776;DHT22;57049;51.450;-2.516;2023-04-24T00:23:36;5.94;96.35
69776;DHT22;57049;51.450;-2.516;2023-04-24T00:26:01;5.97;96.32
69776;DHT22;57049;51.450;-2.516;2023-04-24T00:28:27;5.94;96.34
69776;DHT22;57049;51.450;-2.516;2023-04-24T00:30:53;5.96;96.32
69776;DHT22;57049;51.450;-2.516;2023-04-24T00:33:19;5.96;96.33
69776;DHT22;57049;51.450;-2.516;2023-04-24T00:35:44;5.97;96.37
69776;DHT22;57049;51.450;-2.516;2023-04-24T00:38:10;6.08;96.51
69776;DHT22;57049;51.450;-2.516;2023-04-24T00:40:36;6.13;96.44
69776;DHT22;57049;51.450;-2.516;2023-04-24T00:43:01;6.18;96.36
69776;DHT22;57049;51.450;-2.516;2023-04-24T00:45:27;6.10;96.25
69776;DHT22;57049;51.450;-2.516;2023-04-24T00:47:53;6.04;96.26
69776;DHT22;57049;51.450;-2.516;2023-04-24T00:50:19;6.06;96.36
69776;DHT22;57049;51.450;-2.516;2023-04-24T00:52:46;5.97;96.33
69776;DHT22;57049;51.450;-2.516;2023-04-24T00:55:12;5.98;96.26
69776;DHT22;57049;51.450;-2.516;2023-04-24T00:57:38;5.90;96.34
69776;DHT22;57049;51.450;-2.516;2023-04-24T01:00:05;5.90;96.48
69776;DHT22;57049;51.450;-2.516;2023-04-24T01:02:33;5.85;96.49
69776;DHT22;57049;51.450;-2.516;2023-04-24T01:05:00;5.81;96.50
69776;DHT22;57049;51.450;-2.516;2023-04-24T01:07:26;5.74;96.45
69776;DHT22;57049;51.450;-2.516;2023-04-24T01:09:52;5.67;96.44
69776;DHT22;57049;51.450;-2.516;2023-04-24T01:12:19;5.65;96.47
69776;DHT22;57049;51.450;-2.516;2023-04-24T01:14:44;5.60;96.67
69776;DHT22;57049;51.450;-2.516;2023-04-24T01:17:10;5.57;96.89
69776;DHT22;57049;51.450;-2.516;2023-04-24T01:19:36;5.55;96.79
69776;DHT22;57049;51.450;-2.516;2023-04-24T01:22:02;5.49;96.84
69776;DHT22;57049;51.450;-2.516;2023-04-24T01:24:28;5.47;96.88
69776;DHT22;57049;51.450;-2.516;2023-04-24T01:26:54;5.62;96.93
69776;DHT22;57049;51.450;-2.516;2023-04-24T01:29:20;5.65;96.75
69776;DHT22;57049;51.450;-2.516;2023-04-24T01:31:46;5.71;96.73
69776;DHT22;57049;51.450;-2.516;2023-04-24T01:34:12;5.74;96.81
69776;DHT22;57049;51.450;-2.516;2023-04-24T01:36:38;5.87;96.54
69776;DHT22;57049;51.450;-2.516;2023-04-24T01:39:06;5.89;96.41
69776;DHT22;57049;51.450;-2.516;2023-04-24T01:41:32;5.93;96.30
69776;DHT22;57049;51.450;-2.516;2023-04-24T01:43:58;5.91;96.24
69776;DHT22;57049;51.450;-2.516;2023-04-24T01:46:23;5.93;96.01
69776;DHT22;57049;51.450;-2.516;2023-04-24T01:48:50;5.83;96.05
69776;DHT22;57049;51.450;-2.516;2023-04-24T01:51:17;5.77;96.22
69776;DHT22;57049;51.450;-2.516;2023-04-24T01:53:42;5.74;96.22
69776;DHT22;57049;51.450;-2.516;2023-04-24T01:56:08;5.69;96.33
69776;DHT22;57049;51.450;-2.516;2023-04-24T01:58:34;5.76;96.28
69776;DHT22;57049;51.450;-2.516;2023-04-24T02:00:59;5.73;96.27
69776;DHT22;57049;51.450;-2.516;2023-04-24T02:03:29;5.67;96.23
69776;DHT22;57049;51.450;-2.516;2023-04-24T02:05:57;5.67;96.37
69776;DHT22;57049;51.450;-2.516;2023-04-24T02:08:22;5.67;96.43
69776;DHT22;57049;51.450;-2.516;2023-04-24T02:10:48;5.65;96.43
69776;DHT22;57049;51.450;-2.516;2023-04-24T02:13:13;5.59;96.49
69776;DHT22;57049;51.450;-2.516;2023-04-24T02:15:39;5.52;96.56
69776;DHT22;57049;51.450;-2.516;2023-04-24T02:18:05;5.49;96.60
69776;DHT22;57049;51.450;-2.516;2023-04-24T02:20:32;5.47;96.69
69776;DHT22;57049;51.450;-2.516;2023-04-24T02:22:59;5.46;96.78
69776;DHT22;57049;51.450;-2.516;2023-04-24T02:25:24;5.35;96.71
69776;DHT22;57049;51.450;-2.516;2023-04-24T02:27:50;5.29;96.74
69776;DHT22;57049;51.450;-2.516;2023-04-24T02:30:15;5.29;96.90
69776;DHT22;57049;51.450;-2.516;2023-04-24T02:32:41;5.25;96.99
69776;DHT22;57049;51.450;-2.516;2023-04-24T02:35:06;5.28;96.96
69776;DHT22;57049;51.450;-2.516;2023-04-24T02:37:32;5.29;97.24
69776;DHT22;57049;51.450;-2.516;2023-04-24T02:39:58;5.29;97.11
69776;DHT22;57049;51.450;-2.516;2023-04-24T02:42:23;5.24;97.09
69776;DHT22;57049;51.450;-2.516;2023-04-24T02:44:49;5.24;97.38
69776;DHT22;57049;51.450;-2.516;2023-04-24T02:47:16;5.15;97.37
69776;DHT22;57049;51.450;-2.516;2023-04-24T02:49:41;5.12;97.43
69776;DHT22;57049;51.450;-2.516;2023-04-24T02:52:07;5.04;97.31
69776;DHT22;57049;51.450;-2.516;2023-04-24T02:54:33;5.02;97.31
69776;DHT22;57049;51.450;-2.516;2023-04-24T02:56:58;5.01;97.44
69776;DHT22;57049;51.450;-2.516;2023-04-24T02:59:27;5.04;97.62
69776;DHT22;57049;51.450;-2.516;2023-04-24T03:01:54;5.04;97.60
69776;DHT22;57049;51.450;-2.516;2023-04-24T03:04:19;5.07;97.56
69776;DHT22;57049;51.450;-2.516;2023-04-24T03:06:45;5.12;97.62
69776;DHT22;57049;51.450;-2.516;2023-04-24T03:09:11;5.21;97.64
69776;DHT22;57049;51.450;-2.516;2023-04-24T03:11:36;5.34;97.75
69776;DHT22;57049;51.450;-2.516;2023-04-24T03:14:04;5.40;97.76
69776;DHT22;57049;51.450;-2.516;2023-04-24T03:16:30;5.49;97.74
69776;DHT22;57049;51.450;-2.516;2023-04-24T03:18:55;5.57;97.63
69776;DHT22;57049;51.450;-2.516;2023-04-24T03:21:21;5.74;97.47
69776;DHT22;57049;51.450;-2.516;2023-04-24T03:23:47;5.76;97.42
69776;DHT22;57049;51.450;-2.516;2023-04-24T03:26:12;5.78;97.44
69776;DHT22;57049;51.450;-2.516;2023-04-24T03:28:38;5.80;97.36
69776;DHT22;57049;51.450;-2.516;2023-04-24T03:31:06;5.80;97.43
69776;DHT22;57049;51.450;-2.516;2023-04-24T03:33:32;5.81;97.48
69776;DHT22;57049;51.450;-2.516;2023-04-24T03:35:57;5.89;97.50
69776;DHT22;57049;51.450;-2.516;2023-04-24T03:38:23;5.91;97.37
69776;DHT22;57049;51.450;-2.516;2023-04-24T03:40:48;5.97;97.37
69776;DHT22;57049;51.450;-2.516;2023-04-24T03:43:14;6.01;97.21
69776;DHT22;57049;51.450;-2.516;2023-04-24T03:45:39;6.07;97.30
69776;DHT22;57049;51.450;-2.516;2023-04-24T03:48:05;6.04;97.04
69776;DHT22;57049;51.450;-2.516;2023-04-24T03:50:30;5.98;96.98
69776;DHT22;57049;51.450;-2.516;2023-04-24T03:52:56;5.90;96.98
69776;DHT22;57049;51.450;-2.516;2023-04-24T03:55:21;5.81;96.94
69776;DHT22;57049;51.450;-2.516;2023-04-24T03:57:47;5.74;97.09
69776;DHT22;57049;51.450;-2.516;2023-04-24T04:00:13;5.67;97.13
69776;DHT22;57049;51.450;-2.516;2023-04-24T04:02:39;5.62;97.41
69776;DHT22;57049;51.450;-2.516;2023-04-24T04:05:05;5.53;97.32
69776;DHT22;57049;51.450;-2.516;2023-04-24T04:07:30;5.43;97.33
69776;DHT22;57049;51.450;-2.516;2023-04-24T04:09:56;5.35;97.39
69776;DHT22;57049;51.450;-2.516;2023-04-24T04:12:21;5.29;97.48
69776;DHT22;57049;51.450;-2.516;2023-04-24T04:14:47;5.24;97.58
69776;DHT22;57049;51.450;-2.516;2023-04-24T04:17:13;5.21;97.61
69776;DHT22;57049;51.450;-2.516;2023-04-24T04:19:42;5.19;97.69
69776;DHT22;57049;51.450;-2.516;2023-04-24T04:22:08;5.15;97.53
69776;DHT22;57049;51.450;-2.516;2023-04-24T04:24:33;5.07;97.56
69776;DHT22;57049;51.450;-2.516;2023-04-24T04:27:03;5.04;97.62
69776;DHT22;57049;51.450;-2.516;2023-04-24T04:29:35;4.98;97.88
69776;DHT22;57049;51.450;-2.516;2023-04-24T04:32:01;4.92;97.79
69776;DHT22;57049;51.450;-2.516;2023-04-24T04:34:27;4.85;97.91
69776;DHT22;57049;51.450;-2.516;2023-04-24T04:36:53;4.83;98.00
69776;DHT22;57049;51.450;-2.516;2023-04-24T04:39:18;4.81;98.17
69776;DHT22;57049;51.450;-2.516;2023-04-24T04:41:44;4.75;98.11
69776;DHT22;57049;51.450;-2.516;2023-04-24T04:44:14;4.71;98.18
69776;DHT22;57049;51.450;-2.516;2023-04-24T04:46:40;4.65;98.08
69776;DHT22;57049;51.450;-2.516;2023-04-24T04:49:07;4.60;97.98
69776;DHT22;57049;51.450;-2.516;2023-04-24T04:51:34;4.58;98.04
69776;DHT22;57049;51.450;-2.516;2023-04-24T04:53:59;4.56;98.12
69776;DHT22;57049;51.450;-2.516;2023-04-24T04:56:25;4.57;98.16
69776;DHT22;57049;51.450;-2.516;2023-04-24T04:58:51;4.57;98.23
69776;DHT22;57049;51.450;-2.516;2023-04-24T05:01:16;4.56;98.17
69776;DHT22;57049;51.450;-2.516;2023-04-24T05:03:42;4.54;98.14
69776;DHT22;57049;51.450;-2.516;2023-04-24T05:06:08;4.54;98.20
69776;DHT22;57049;51.450;-2.516;2023-04-24T05:08:34;4.50;98.07
69776;DHT22;57049;51.450;-2.516;2023-04-24T05:11:00;4.46;97.99
69776;DHT22;57049;51.450;-2.516;2023-04-24T05:13:25;4.40;98.03
69776;DHT22;57049;51.450;-2.516;2023-04-24T05:15:51;4.42;98.24
69776;DHT22;57049;51.450;-2.516;2023-04-24T05:18:16;4.43;98.19
69776;DHT22;57049;51.450;-2.516;2023-04-24T05:20:42;4.44;98.32
69776;DHT22;57049;51.450;-2.516;2023-04-24T05:23:09;4.42;98.24
69776;DHT22;57049;51.450;-2.516;2023-04-24T05:25:35;4.44;98.18
69776;DHT22;57049;51.450;-2.516;2023-04-24T05:28:01;4.46;98.39
69776;DHT22;57049;51.450;-2.516;2023-04-24T05:30:27;4.46;98.41
69776;DHT22;57049;51.450;-2.516;2023-04-24T05:32:53;4.49;98.36
69776;DHT22;57049;51.450;-2.516;2023-04-24T05:35:21;4.53;98.17
69776;DHT22;57049;51.450;-2.516;2023-04-24T05:37:47;4.54;98.13
69776;DHT22;57049;51.450;-2.516;2023-04-24T05:40:12;4.58;98.05
69776;DHT22;57049;51.450;-2.516;2023-04-24T05:42:38;4.61;98.01
69776;DHT22;57049;51.450;-2.516;2023-04-24T05:45:04;4.61;97.95
69776;DHT22;57049;51.450;-2.516;2023-04-24T05:47:32;4.67;98.09
69776;DHT22;57049;51.450;-2.516;2023-04-24T05:49:58;4.73;98.16
69776;DHT22;57049;51.450;-2.516;2023-04-24T05:52:23;4.96;97.94
69776;DHT22;57049;51.450;-2.516;2023-04-24T05:54:49;5.32;97.72
69776;DHT22;57049;51.450;-2.516;2023-04-24T05:57:14;5.74;96.93
69776;DHT22;57049;51.450;-2.516;2023-04-24T05:59:40;6.45;96.07
69776;DHT22;57049;51.450;-2.516;2023-04-24T06:02:06;7.48;94.39
69776;DHT22;57049;51.450;-2.516;2023-04-24T06:04:32;8.17;92.74
69776;DHT22;57049;51.450;-2.516;2023-04-24T06:06:58;9.22;90.55
69776;DHT22;57049;51.450;-2.516;2023-04-24T06:09:25;10.00;87.62
69776;DHT22;57049;51.450;-2.516;2023-04-24T06:11:51;10.76;86.10
69776;DHT22;57049;51.450;-2.516;2023-04-24T06:14:20;11.42;81.75
69776;DHT22;57049;51.450;-2.516;2023-04-24T06:16:46;11.84;79.40
69776;DHT22;57049;51.450;-2.516;2023-04-24T06:19:12;12.04;77.98
69776;DHT22;57049;51.450;-2.516;2023-04-24T06:21:37;13.33;75.57
69776;DHT22;57049;51.450;-2.516;2023-04-24T06:24:03;14.33;70.93
69776;DHT22;57049;51.450;-2.516;2023-04-24T06:26:29;15.10;69.87
69776;DHT22;57049;51.450;-2.516;2023-04-24T06:28:55;15.61;66.74
69776;DHT22;57049;51.450;-2.516;2023-04-24T06:31:20;15.66;65.76
69776;DHT22;57049;51.450;-2.516;2023-04-24T06:33:46;15.14;65.75
69776;DHT22;57049;51.450;-2.516;2023-04-24T06:36:12;15.58;63.81
69776;DHT22;57049;51.450;-2.516;2023-04-24T06:38:37;16.50;64.54
69776;DHT22;57049;51.450;-2.516;2023-04-24T06:41:03;16.69;61.68
69776;DHT22;57049;51.450;-2.516;2023-04-24T06:43:33;16.89;62.02
69776;DHT22;57049;51.450;-2.516;2023-04-24T06:45:59;16.56;61.48
69776;DHT22;57049;51.450;-2.516;2023-04-24T06:48:25;15.00;66.46
69776;DHT22;57049;51.450;-2.516;2023-04-24T06:50:51;13.86;68.95
69776;DHT22;57049;51.450;-2.516;2023-04-24T06:53:18;12.85;71.64
69776;DHT22;57049;51.450;-2.516;2023-04-24T06:55:44;12.02;73.73
69776;DHT22;57049;51.450;-2.516;2023-04-24T06:58:12;11.54;74.53
69776;DHT22;57049;51.450;-2.516;2023-04-24T07:00:38;11.03;76.86
69776;DHT22;57049;51.450;-2.516;2023-04-24T07:03:04;10.98;78.17
69776;DHT22;57049;51.450;-2.516;2023-04-24T07:05:32;10.88;78.57
69776;DHT22;57049;51.450;-2.516;2023-04-24T07:08:03;10.78;79.45
69776;DHT22;57049;51.450;-2.516;2023-04-24T07:10:29;10.68;80.24
69776;DHT22;57049;51.450;-2.516;2023-04-24T07:12:55;10.57;80.95
69776;DHT22;57049;51.450;-2.516;2023-04-24T07:15:22;10.78;80.75
69776;DHT22;57049;51.450;-2.516;2023-04-24T07:17:48;10.88;80.42
69776;DHT22;57049;51.450;-2.516;2023-04-24T07:20:13;10.85;80.70
69776;DHT22;57049;51.450;-2.516;2023-04-24T07:22:40;10.71;80.44
69776;DHT22;57049;51.450;-2.516;2023-04-24T07:25:06;10.78;81.02
69776;DHT22;57049;51.450;-2.516;2023-04-24T07:27:32;10.95;80.51
69776;DHT22;57049;51.450;-2.516;2023-04-24T07:29:57;10.98;81.52
69776;DHT22;57049;51.450;-2.516;2023-04-24T07:32:23;10.84;81.81
69776;DHT22;57049;51.450;-2.516;2023-04-24T07:34:48;10.76;81.54
69776;DHT22;57049;51.450;-2.516;2023-04-24T07:37:14;10.47;82.28
69776;DHT22;57049;51.450;-2.516;2023-04-24T07:39:39;10.33;82.77
69776;DHT22;57049;51.450;-2.516;2023-04-24T07:42:05;10.21;82.22
69776;DHT22;57049;51.450;-2.516;2023-04-24T07:44:30;10.04;83.07
69776;DHT22;57049;51.450;-2.516;2023-04-24T07:46:57;10.11;82.80
69776;DHT22;57049;51.450;-2.516;2023-04-24T07:49:23;9.96;83.07
69776;DHT22;57049;51.450;-2.516;2023-04-24T07:51:49;10.14;83.18
69776;DHT22;57049;51.450;-2.516;2023-04-24T07:54:15;10.41;83.50
69776;DHT22;57049;51.450;-2.516;2023-04-24T07:56:41;11.12;82.12
69776;DHT22;57049;51.450;-2.516;2023-04-24T07:59:08;12.42;77.86
69776;DHT22;57049;51.450;-2.516;2023-04-24T08:01:35;12.68;75.65
69776;DHT22;57049;51.450;-2.516;2023-04-24T08:04:01;13.26;73.42
69776;DHT22;57049;51.450;-2.516;2023-04-24T08:06:27;13.50;73.10
69776;DHT22;57049;51.450;-2.516;2023-04-24T08:08:57;13.34;72.31
69776;DHT22;57049;51.450;-2.516;2023-04-24T08:11:24;13.14;73.29
69776;DHT22;57049;51.450;-2.516;2023-04-24T08:13:49;12.49;74.38
69776;DHT22;57049;51.450;-2.516;2023-04-24T08:16:15;12.55;73.73
69776;DHT22;57049;51.450;-2.516;2023-04-24T08:18:41;12.38;71.90
69776;DHT22;57049;51.450;-2.516;2023-04-24T08:21:06;12.31;72.39
69776;DHT22;57049;51.450;-2.516;2023-04-24T08:23:32;12.60;71.76
69776;DHT22;57049;51.450;-2.516;2023-04-24T08:25:57;12.55;72.23
69776;DHT22;57049;51.450;-2.516;2023-04-24T08:28:23;12.20;72.44
69776;DHT22;57049;51.450;-2.516;2023-04-24T08:30:49;12.52;72.53
69776;DHT22;57049;51.450;-2.516;2023-04-24T08:33:20;12.49;73.31
69776;DHT22;57049;51.450;-2.516;2023-04-24T08:35:45;11.91;75.46
69776;DHT22;57049;51.450;-2.516;2023-04-24T08:38:11;11.62;76.49
69776;DHT22;57049;51.450;-2.516;2023-04-24T08:40:36;11.37;76.61
69776;DHT22;57049;51.450;-2.516;2023-04-24T08:43:03;10.89;78.81
69776;DHT22;57049;51.450;-2.516;2023-04-24T08:45:29;10.45;79.97
69776;DHT22;57049;51.450;-2.516;2023-04-24T08:47:55;9.96;84.42
69776;DHT22;57049;51.450;-2.516;2023-04-24T08:50:21;9.82;85.13
69776;DHT22;57049;51.450;-2.516;2023-04-24T08:52:49;9.72;85.73
69776;DHT22;57049;51.450;-2.516;2023-04-24T08:55:16;10.01;86.54
69776;DHT22;57049;51.450;-2.516;2023-04-24T08:57:50;10.16;87.02
69776;DHT22;57049;51.450;-2.516;2023-04-24T09:00:17;9.89;84.94
69776;DHT22;57049;51.450;-2.516;2023-04-24T09:02:43;9.89;85.56
69776;DHT22;57049;51.450;-2.516;2023-04-24T09:05:10;10.01;86.04
69776;DHT22;57049;51.450;-2.516;2023-04-24T09:07:39;9.85;87.17
69776;DHT22;57049;51.450;-2.516;2023-04-24T09:10:06;9.76;86.97
69776;DHT22;57049;51.450;-2.516;2023-04-24T09:12:33;9.53;86.48
69776;DHT22;57049;51.450;-2.516;2023-04-24T09:15:00;9.48;87.75
69776;DHT22;57049;51.450;-2.516;2023-04-24T09:17:25;9.34;87.98
69776;DHT22;57049;51.450;-2.516;2023-04-24T09:19:53;9.29;88.57
69776;DHT22;57049;51.450;-2.516;2023-04-24T09:22:20;9.48;87.79
69776;DHT22;57049;51.450;-2.516;2023-04-24T09:24:45;9.42;88.55
69776;DHT22;57049;51.450;-2.516;2023-04-24T09:27:11;9.50;88.59
69776;DHT22;57049;51.450;-2.516;2023-04-24T09:29:37;9.48;88.64
69776;DHT22;57049;51.450;-2.516;2023-04-24T09:32:22;9.38;88.75
69776;DHT22;57049;51.450;-2.516;2023-04-24T09:35:14;9.19;89.17
69776;DHT22;57049;51.450;-2.516;2023-04-24T09:37:46;9.17;90.48
69776;DHT22;57049;51.450;-2.516;2023-04-24T09:40:17;9.14;91.02
69776;DHT22;57049;51.450;-2.516;2023-04-24T09:42:54;9.25;91.69
69776;DHT22;57049;51.450;-2.516;2023-04-24T09:45:20;9.28;91.68
69776;DHT22;57049;51.450;-2.516;2023-04-24T09:47:51;9.12;91.09
69776;DHT22;57049;51.450;-2.516;2023-04-24T09:50:17;9.10;91.74
69776;DHT22;57049;51.450;-2.516;2023-04-24T09:52:56;9.03;91.99
69776;DHT22;57049;51.450;-2.516;2023-04-24T09:55:22;9.01;93.31
69776;DHT22;57049;51.450;-2.516;2023-04-24T09:57:58;8.88;93.49
69776;DHT22;57049;51.450;-2.516;2023-04-24T10:00:30;8.94;93.65
69776;DHT22;57049;51.450;-2.516;2023-04-24T10:03:04;8.97;94.26
69776;DHT22;57049;51.450;-2.516;2023-04-24T10:08:09;8.49;95.09
69776;DHT22;57049;51.450;-2.516;2023-04-24T10:10:43;8.26;95.78
69776;DHT22;57049;51.450;-2.516;2023-04-24T10:13:10;8.32;96.34
69776;DHT22;57049;51.450;-2.516;2023-04-24T10:15:37;8.33;96.26
69776;DHT22;57049;51.450;-2.516;2023-04-24T10:18:05;8.19;96.43
69776;DHT22;57049;51.450;-2.516;2023-04-24T10:20:32;8.10;96.41
69776;DHT22;57049;51.450;-2.516;2023-04-24T10:22:59;8.09;96.49
69776;DHT22;57049;51.450;-2.516;2023-04-24T10:25:30;8.07;96.74
69776;DHT22;57049;51.450;-2.516;2023-04-24T10:27:57;8.09;96.29
69776;DHT22;57049;51.450;-2.516;2023-04-24T10:30:26;8.02;96.39
69776;DHT22;57049;51.450;-2.516;2023-04-24T10:32:52;8.07;96.21
69776;DHT22;57049;51.450;-2.516;2023-04-24T10:35:18;8.29;96.21
69776;DHT22;57049;51.450;-2.516;2023-04-24T10:40:36;8.63;95.46
69776;DHT22;57049;51.450;-2.516;2023-04-24T10:43:03;8.52;95.80
69776;DHT22;57049;51.450;-2.516;2023-04-24T10:45:31;8.47;95.40
69776;DHT22;57049;51.450;-2.516;2023-04-24T10:47:58;8.39;95.64
69776;DHT22;57049;51.450;-2.516;2023-04-24T10:50:27;8.25;96.07
69776;DHT22;57049;51.450;-2.516;2023-04-24T10:52:53;8.28;95.86
69776;DHT22;57049;51.450;-2.516;2023-04-24T10:55:43;8.13;95.68
69776;DHT22;57049;51.450;-2.516;2023-04-24T10:58:09;8.07;96.06
69776;DHT22;57049;51.450;-2.516;2023-04-24T11:00:40;7.98;96.01
69776;DHT22;57049;51.450;-2.516;2023-04-24T11:05:56;7.88;95.52
69776;DHT22;57049;51.450;-2.516;2023-04-24T11:08:26;7.88;96.15
69776;DHT22;57049;51.450;-2.516;2023-04-24T11:11:03;8.01;96.44
69776;DHT22;57049;51.450;-2.516;2023-04-24T11:19:18;8.15;96.37
69776;DHT22;57049;51.450;-2.516;2023-04-24T11:21:49;8.40;96.14
69776;DHT22;57049;51.450;-2.516;2023-04-24T11:24:36;8.57;95.92
69776;DHT22;57049;51.450;-2.516;2023-04-24T11:27:18;8.70;95.33
69776;DHT22;57049;51.450;-2.516;2023-04-24T11:35:03;8.64;94.83
69776;DHT22;57049;51.450;-2.516;2023-04-24T11:37:38;8.77;95.10
69776;DHT22;57049;51.450;-2.516;2023-04-24T11:40:10;8.94;94.74
69776;DHT22;57049;51.450;-2.516;2023-04-24T11:42:37;8.96;93.31
69776;DHT22;57049;51.450;-2.516;2023-04-24T11:45:08;8.91;92.59
69776;DHT22;57049;51.450;-2.516;2023-04-24T11:47:34;9.10;93.05
69776;DHT22;57049;51.450;-2.516;2023-04-24T11:50:01;9.00;91.76
69776;DHT22;57049;51.450;-2.516;2023-04-24T11:52:27;8.68;90.91
69776;DHT22;57049;51.450;-2.516;2023-04-24T11:54:52;8.92;91.59
69776;DHT22;57049;51.450;-2.516;2023-04-24T11:57:23;9.11;92.27
69776;DHT22;57049;51.450;-2.516;2023-04-24T11:59:49;8.98;89.81
69776;DHT22;57049;51.450;-2.516;2023-04-24T12:02:25;8.98;90.73
69776;DHT22;57049;51.450;-2.516;2023-04-24T12:04:52;9.00;90.02
69776;DHT22;57049;51.450;-2.516;2023-04-24T12:07:18;9.01;90.43
69776;DHT22;57049;51.450;-2.516;2023-04-24T12:09:45;9.10;91.43
69776;DHT22;57049;51.450;-2.516;2023-04-24T12:12:16;8.90;92.02
69776;DHT22;57049;51.450;-2.516;2023-04-24T12:15:05;8.70;91.16
69776;DHT22;57049;51.450;-2.516;2023-04-24T12:17:33;8.90;91.84
69776;DHT22;57049;51.450;-2.516;2023-04-24T12:20:06;8.67;91.31
69776;DHT22;57049;51.450;-2.516;2023-04-24T12:22:54;8.46;91.61
69776;DHT22;57049;51.450;-2.516;2023-04-24T12:25:25;8.47;91.45
69776;DHT22;57049;51.450;-2.516;2023-04-24T12:30:31;8.87;92.21
69776;DHT22;57049;51.450;-2.516;2023-04-24T12:32:59;8.67;92.06
69776;DHT22;57049;51.450;-2.516;2023-04-24T12:35:30;8.66;92.96
69776;DHT22;57049;51.450;-2.516;2023-04-24T12:38:08;8.74;93.41
69776;DHT22;57049;51.450;-2.516;2023-04-24T12:40:33;9.04;92.79
69776;DHT22;57049;51.450;-2.516;2023-04-24T12:42:59;9.08;92.17
69776;DHT22;57049;51.450;-2.516;2023-04-24T12:45:24;9.21;92.79
69776;DHT22;57049;51.450;-2.516;2023-04-24T12:47:50;9.55;93.04
69776;DHT22;57049;51.450;-2.516;2023-04-24T12:50:16;9.28;91.80
69776;DHT22;57049;51.450;-2.516;2023-04-24T12:52:42;9.35;92.34
69776;DHT22;57049;51.450;-2.516;2023-04-24T12:55:08;9.86;92.61
69776;DHT22;57049;51.450;-2.516;2023-04-24T12:57:35;9.65;91.10
69776;DHT22;57049;51.450;-2.516;2023-04-24T13:00:01;9.92;91.27
69776;DHT22;57049;51.450;-2.516;2023-04-24T13:02:28;9.59;90.21
69776;DHT22;57049;51.450;-2.516;2023-04-24T13:04:55;10.20;90.61
69776;DHT22;57049;51.450;-2.516;2023-04-24T13:07:21;10.25;90.42
69776;DHT22;57049;51.450;-2.516;2023-04-24T13:09:48;9.76;90.74
69776;DHT22;57049;51.450;-2.516;2023-04-24T13:12:14;9.75;91.20
69776;DHT22;57049;51.450;-2.516;2023-04-24T13:14:40;9.69;91.91
69776;DHT22;57049;51.450;-2.516;2023-04-24T13:17:06;9.85;91.93
69776;DHT22;57049;51.450;-2.516;2023-04-24T13:19:36;9.99;90.69
69776;DHT22;57049;51.450;-2.516;2023-04-24T13:22:02;9.59;89.53
69776;DHT22;57049;51.450;-2.516;2023-04-24T13:24:28;9.72;90.83
69776;DHT22;57049;51.450;-2.516;2023-04-24T13:26:53;9.43;90.44
69776;DHT22;57049;51.450;-2.516;2023-04-24T13:29:19;9.41;91.35
69776;DHT22;57049;51.450;-2.516;2023-04-24T13:31:46;9.55;91.38
69776;DHT22;57049;51.450;-2.516;2023-04-24T13:34:12;9.78;91.85
69776;DHT22;57049;51.450;-2.516;2023-04-24T13:36:38;10.11;91.12
69776;DHT22;57049;51.450;-2.516;2023-04-24T13:39:05;10.18;89.99
69776;DHT22;57049;51.450;-2.516;2023-04-24T13:41:30;10.43;89.53
69776;DHT22;57049;51.450;-2.516;2023-04-24T13:43:56;10.34;89.16
69776;DHT22;57049;51.450;-2.516;2023-04-24T13:46:21;10.13;88.60
69776;DHT22;57049;51.450;-2.516;2023-04-24T13:48:47;10.09;88.14
69776;DHT22;57049;51.450;-2.516;2023-04-24T13:51:12;10.16;88.76
69776;DHT22;57049;51.450;-2.516;2023-04-24T13:53:38;10.01;87.51
69776;DHT22;57049;51.450;-2.516;2023-04-24T13:56:04;9.90;88.65
69776;DHT22;57049;51.450;-2.516;2023-04-24T13:58:31;9.79;89.80
69776;DHT22;57049;51.450;-2.516;2023-04-24T14:00:57;9.87;90.77
69776;DHT22;57049;51.450;-2.516;2023-04-24T14:03:22;9.93;90.86
69776;DHT22;57049;51.450;-2.516;2023-04-24T14:05:48;9.70;89.68
69776;DHT22;57049;51.450;-2.516;2023-04-24T14:08:13;9.60;89.55
69776;DHT22;57049;51.450;-2.516;2023-04-24T14:10:39;9.48;88.83
69776;DHT22;57049;51.450;-2.516;2023-04-24T14:13:04;9.35;89.64
69776;DHT22;57049;51.450;-2.516;2023-04-24T14:15:30;9.25;89.39
69776;DHT22;57049;51.450;-2.516;2023-04-24T14:17:56;9.18;90.76
69776;DHT22;57049;51.450;-2.516;2023-04-24T14:20:22;9.11;90.65
69776;DHT22;57049;51.450;-2.516;2023-04-24T14:22:48;9.08;91.61
69776;DHT22;57049;51.450;-2.516;2023-04-24T14:25:13;9.07;91.76
69776;DHT22;57049;51.450;-2.516;2023-04-24T14:27:48;8.76;91.34
69776;DHT22;57049;51.450;-2.516;2023-04-24T14:30:13;8.57;91.49
69776;DHT22;57049;51.450;-2.516;2023-04-24T14:32:43;8.46;92.26
69776;DHT22;57049;51.450;-2.516;2023-04-24T14:35:08;8.40;92.72
69776;DHT22;57049;51.450;-2.516;2023-04-24T14:37:34;8.33;92.58
69776;DHT22;57049;51.450;-2.516;2023-04-24T14:40:00;8.35;93.81
69776;DHT22;57049;51.450;-2.516;2023-04-24T14:42:26;8.32;93.51
69776;DHT22;57049;51.450;-2.516;2023-04-24T14:44:54;8.29;93.59
69776;DHT22;57049;51.450;-2.516;2023-04-24T14:47:19;8.28;94.03
69776;DHT22;57049;51.450;-2.516;2023-04-24T14:49:49;8.25;94.21
69776;DHT22;57049;51.450;-2.516;2023-04-24T14:52:15;8.21;94.27
69776;DHT22;57049;51.450;-2.516;2023-04-24T14:54:41;8.07;94.59
69776;DHT22;57049;51.450;-2.516;2023-04-24T14:57:07;7.92;94.96
69776;DHT22;57049;51.450;-2.516;2023-04-24T14:59:33;7.77;94.96
69776;DHT22;57049;51.450;-2.516;2023-04-24T15:01:58;7.70;96.19
69776;DHT22;57049;51.450;-2.516;2023-04-24T15:04:24;7.47;95.74
69776;DHT22;57049;51.450;-2.516;2023-04-24T15:06:53;7.44;95.80
69776;DHT22;57049;51.450;-2.516;2023-04-24T15:09:20;7.51;95.91
69776;DHT22;57049;51.450;-2.516;2023-04-24T15:11:46;7.37;95.39
69776;DHT22;57049;51.450;-2.516;2023-04-24T15:14:11;7.28;95.02
69776;DHT22;57049;51.450;-2.516;2023-04-24T15:16:37;7.20;95.33
69776;DHT22;57049;51.450;-2.516;2023-04-24T15:19:02;7.14;95.16
69776;DHT22;57049;51.450;-2.516;2023-04-24T15:21:28;7.10;95.06
69776;DHT22;57049;51.450;-2.516;2023-04-24T15:23:53;7.12;95.17
69776;DHT22;57049;51.450;-2.516;2023-04-24T15:26:19;7.12;95.14
69776;DHT22;57049;51.450;-2.516;2023-04-24T15:28:45;7.12;95.28
69776;DHT22;57049;51.450;-2.516;2023-04-24T15:31:12;7.12;94.96
69776;DHT22;57049;51.450;-2.516;2023-04-24T15:33:37;7.20;95.28
69776;DHT22;57049;51.450;-2.516;2023-04-24T15:36:03;7.22;94.80
69776;DHT22;57049;51.450;-2.516;2023-04-24T15:38:30;7.02;94.31
69776;DHT22;57049;51.450;-2.516;2023-04-24T15:40:56;6.99;94.50
69776;DHT22;57049;51.450;-2.516;2023-04-24T15:43:22;7.02;94.52
69776;DHT22;57049;51.450;-2.516;2023-04-24T15:45:49;7.06;94.35
69776;DHT22;57049;51.450;-2.516;2023-04-24T15:48:15;7.09;94.47